Time;durP1;ratioP1;P1;durP2;ratioP2;P2;SDS_P1;SDS_P2;PMS_P1;PMS_P2;Temp;Humidity;BMP_temperature;BMP_pressure;BME280_temperature;BME280_humidity;BME280_pressure;Samples;Min_cycle;Max_cycle;Signal;HPM_P1;HPM_P2
2022/05/23 00:01:38;;;;;;;4.22;2.60;;;;;;;;;;5033166;28;20094;-35
2022/05/23 00:04:04;;;;;;;3.53;2.50;;;;;;;;;;5041153;28;20123;-32
2022/05/23 00:06:30;;;;;;;3.53;2.70;;;;;;;;;;5052063;28;20102;-32
2022/05/23 00:08:56;;;;;;;2.95;2.50;;;;;;;;;;5045562;28;20128;-31
2022/05/23 00:11:23;;;;;;;6.70;2.75;;;;;;;;;;5051560;28;20040;-33
2022/05/23 00:13:49;;;;;;;7.43;2.75;;;;;;;;;;5036937;28;20048;-33
2022/05/23 00:16:20;;;;;;;4.63;2.78;;;;;;;;;;5032970;28;20048;-31
2022/05/23 00:18:47;;;;;;;3.17;2.67;;;;;;;;;;5042940;28;20518;-34
2022/05/23 00:21:13;;;;;;;3.58;2.70;;;;;;;;;;5031716;28;20041;-32
2022/05/23 00:23:39;;;;;;;4.63;2.60;;;;;;;;;;5032975;28;20041;-31
2022/05/23 00:26:05;;;;;;;5.63;2.72;;;;;;;;;;5033902;28;20414;-28
2022/05/23 00:28:31;;;;;;;5.88;2.88;;;;;;;;;;5033151;28;20135;-32
2022/05/23 00:30:57;;;;;;;5.22;2.95;;;;;;;;;;5032399;28;20034;-30
2022/05/23 00:36:08;;;;;;;3.08;2.78;;;;;;;;;;5032173;28;20076;-29
2022/05/23 00:38:34;;;;;;;4.07;2.80;;;;;;;;;;5033018;28;20045;-29
2022/05/23 00:43:57;;;;;;;3.15;2.60;;;;;;;;;;5028655;28;20044;-31
2022/05/23 00:46:24;;;;;;;2.90;2.70;;;;;;;;;;5052203;28;20116;-30
2022/05/23 00:48:51;;;;;;;4.07;2.50;;;;;;;;;;5051907;28;20041;-29
2022/05/23 00:51:17;;;;;;;5.75;3.03;;;;;;;;;;5052645;28;20041;-29
2022/05/23 00:54:02;;;;;;;4.63;2.67;;;;;;;;;;5050232;28;20548;-30
2022/05/23 00:56:32;;;;;;;3.15;2.70;;;;;;;;;;5033221;28;20041;-28
2022/05/23 00:59:00;;;;;;;3.85;3.10;;;;;;;;;;5031839;28;20384;-30
2022/05/23 01:01:28;;;;;;;4.70;2.45;;;;;;;;;;5032486;28;20095;-30
2022/05/23 01:03:54;;;;;;;3.10;2.67;;;;;;;;;;5032283;28;20049;-29
2022/05/23 01:06:20;;;;;;;4.45;2.80;;;;;;;;;;5042112;28;20040;-29
2022/05/23 01:08:47;;;;;;;3.08;2.60;;;;;;;;;;5051970;28;20044;-29
2022/05/23 01:11:13;;;;;;;3.13;2.83;;;;;;;;;;5051521;28;20049;-29
2022/05/23 01:13:39;;;;;;;5.07;2.95;;;;;;;;;;5052126;28;20040;-28
2022/05/23 01:16:05;;;;;;;4.57;3.13;;;;;;;;;;5051921;28;20039;-31
2022/05/23 01:18:32;;;;;;;4.72;2.42;;;;;;;;;;5050933;28;20048;-29
2022/05/23 01:20:59;;;;;;;3.35;2.70;;;;;;;;;;5051424;28;20037;-29
2022/05/23 01:23:28;;;;;;;3.35;2.80;;;;;;;;;;5051613;28;20095;-29
2022/05/23 01:25:54;;;;;;;2.88;2.50;;;;;;;;;;5051680;28;20090;-29
2022/05/23 01:28:21;;;;;;;2.55;2.35;;;;;;;;;;5051208;28;20058;-30
2022/05/23 01:30:47;;;;;;;3.85;2.97;;;;;;;;;;5052079;28;20124;-28
2022/05/23 01:33:14;;;;;;;3.50;2.40;;;;;;;;;;5047402;28;20041;-30
2022/05/23 01:35:40;;;;;;;4.03;2.50;;;;;;;;;;5032138;28;20530;-30
2022/05/23 01:38:07;;;;;;;2.55;2.33;;;;;;;;;;5031733;28;20133;-28
2022/05/23 01:40:33;;;;;;;4.18;2.70;;;;;;;;;;5030477;28;20095;-28
2022/05/23 01:43:00;;;;;;;5.03;2.70;;;;;;;;;;5039805;28;20418;-30
2022/05/23 01:45:28;;;;;;;2.78;2.58;;;;;;;;;;5051465;28;20045;-29
2022/05/23 01:47:54;;;;;;;3.20;2.50;;;;;;;;;;5051953;28;20128;-29
2022/05/23 01:50:23;;;;;;;4.28;2.60;;;;;;;;;;5051993;28;20037;-32
2022/05/23 01:52:49;;;;;;;4.28;2.60;;;;;;;;;;5051182;28;20376;-29
2022/05/23 01:55:15;;;;;;;3.25;2.42;;;;;;;;;;5051095;28;20095;-29
2022/05/23 01:57:41;;;;;;;5.38;2.88;;;;;;;;;;5035398;28;20406;-28
2022/05/23 02:02:53;;;;;;;4.28;2.53;;;;;;;;;;5030822;28;20562;-32
2022/05/23 02:05:20;;;;;;;3.17;2.45;;;;;;;;;;5031173;28;20499;-28
2022/05/23 02:07:46;;;;;;;4.28;2.33;;;;;;;;;;5030499;28;20058;-31
2022/05/23 02:10:13;;;;;;;3.95;2.10;;;;;;;;;;5031129;28;20196;-29
2022/05/23 02:12:39;;;;;;;4.47;2.75;;;;;;;;;;5031117;28;20037;-30
2022/05/23 02:15:06;;;;;;;5.10;2.40;;;;;;;;;;5037241;28;20044;-28
2022/05/23 02:17:32;;;;;;;4.93;2.53;;;;;;;;;;5050749;28;20033;-29
2022/05/23 02:19:58;;;;;;;2.95;2.55;;;;;;;;;;5050491;28;20565;-29
2022/05/23 02:22:24;;;;;;;5.55;2.80;;;;;;;;;;5033270;28;20048;-29
2022/05/23 02:24:50;;;;;;;2.53;2.30;;;;;;;;;;5050796;28;20088;-30
2022/05/23 02:27:16;;;;;;;3.65;2.33;;;;;;;;;;5050308;28;20049;-28
2022/05/23 02:29:42;;;;;;;4.00;2.85;;;;;;;;;;5051187;28;20133;-28
2022/05/23 02:32:10;;;;;;;3.60;2.70;;;;;;;;;;5054668;28;20091;-29
2022/05/23 02:34:36;;;;;;;3.50;2.38;;;;;;;;;;5054956;28;20045;-28
2022/05/23 02:37:03;;;;;;;3.85;2.45;;;;;;;;;;5054921;28;20071;-29
2022/05/23 02:39:29;;;;;;;4.25;2.55;;;;;;;;;;5054509;28;20040;-29
2022/05/23 02:41:55;;;;;;;3.95;2.50;;;;;;;;;;5041885;28;20041;-29
2022/05/23 02:44:21;;;;;;;3.40;2.60;;;;;;;;;;5035522;28;20372;-30
2022/05/23 02:46:48;;;;;;;3.67;3.00;;;;;;;;;;5034369;28;20167;-29
2022/05/23 02:49:14;;;;;;;4.13;2.50;;;;;;;;;;5034117;28;20069;-29
2022/05/23 02:51:40;;;;;;;4.22;2.72;;;;;;;;;;5034368;28;20040;-31
2022/05/23 02:54:06;;;;;;;4.03;2.58;;;;;;;;;;5049086;28;20029;-30
2022/05/23 02:56:34;;;;;;;4.10;2.80;;;;;;;;;;5053854;28;20044;-31
2022/05/23 02:59:00;;;;;;;4.55;3.42;;;;;;;;;;5053899;28;20118;-32
2022/05/23 03:01:26;;;;;;;3.38;2.42;;;;;;;;;;5053586;28;20051;-32
2022/05/23 03:03:52;;;;;;;5.35;2.83;;;;;;;;;;5038711;28;20045;-30
2022/05/23 03:06:18;;;;;;;5.18;2.80;;;;;;;;;;5041944;28;20056;-32
2022/05/23 03:08:44;;;;;;;5.13;3.10;;;;;;;;;;5033142;28;20048;-31
2022/05/23 03:11:10;;;;;;;3.05;2.70;;;;;;;;;;5048555;28;20073;-30
2022/05/23 03:13:37;;;;;;;4.63;2.75;;;;;;;;;;5014039;28;20045;-31
2022/05/23 03:16:10;;;;;;;4.93;2.92;;;;;;;;;;5036074;28;20408;-33
2022/05/23 03:18:37;;;;;;;5.13;2.70;;;;;;;;;;5032734;28;20057;-32
2022/05/23 03:21:05;;;;;;;4.30;3.08;;;;;;;;;;5044935;28;20410;-30
2022/05/23 03:29:01;;;;;;;3.72;3.10;;;;;;;;;;5053247;28;20041;-31
2022/05/23 03:31:28;;;;;;;4.85;3.08;;;;;;;;;;5051712;28;20033;-31
2022/05/23 03:33:54;;;;;;;4.50;3.28;;;;;;;;;;5036633;28;20116;-33
2022/05/23 03:36:21;;;;;;;4.05;3.33;;;;;;;;;;5041659;28;20042;-31
2022/05/23 03:38:47;;;;;;;4.20;2.65;;;;;;;;;;5041965;28;20033;-32
2022/05/23 03:41:13;;;;;;;5.32;3.70;;;;;;;;;;5045733;28;20041;-31
2022/05/23 03:43:39;;;;;;;3.90;3.10;;;;;;;;;;5051366;28;20045;-32
2022/05/23 03:46:07;;;;;;;5.32;3.70;;;;;;;;;;5033985;28;20045;-31
2022/05/23 03:48:33;;;;;;;6.60;3.65;;;;;;;;;;5032009;28;20419;-31
2022/05/23 03:51:00;;;;;;;5.10;3.47;;;;;;;;;;5041472;28;20036;-31
2022/05/23 03:53:26;;;;;;;4.57;3.03;;;;;;;;;;5054351;28;20244;-32
2022/05/23 03:55:53;;;;;;;4.95;3.25;;;;;;;;;;5043508;28;20129;-32
2022/05/23 03:58:19;;;;;;;3.83;3.00;;;;;;;;;;5049774;28;20087;-30
2022/05/23 04:00:49;;;;;;;4.22;3.53;;;;;;;;;;5042829;28;20622;-29
2022/05/23 04:03:16;;;;;;;4.95;3.20;;;;;;;;;;5044421;28;20053;-30
2022/05/23 04:05:42;;;;;;;3.75;3.30;;;;;;;;;;5033837;28;20049;-29
2022/05/23 04:08:09;;;;;;;4.75;3.70;;;;;;;;;;5041562;28;20049;-28
2022/05/23 04:10:35;;;;;;;3.63;3.20;;;;;;;;;;5049981;28;20032;-29
2022/05/23 04:13:02;;;;;;;3.58;3.25;;;;;;;;;;5039030;28;20048;-29
2022/05/23 04:15:31;;;;;;;4.78;3.50;;;;;;;;;;5033141;28;20045;-28
2022/05/23 04:17:58;;;;;;;3.88;3.47;;;;;;;;;;5033223;28;20103;-31
2022/05/23 04:20:24;;;;;;;3.85;3.42;;;;;;;;;;5048424;28;20068;-29
2022/05/23 04:22:50;;;;;;;3.50;3.20;;;;;;;;;;5032387;28;20461;-29
2022/05/23 04:25:16;;;;;;;5.95;3.83;;;;;;;;;;5046889;28;20124;-29
2022/05/23 04:27:43;;;;;;;4.22;3.40;;;;;;;;;;5053135;28;20490;-29
2022/05/23 04:30:10;;;;;;;4.70;3.30;;;;;;;;;;5050986;28;20043;-29
2022/05/23 04:35:22;;;;;;;4.45;3.88;;;;;;;;;;5044626;28;20116;-30
2022/05/23 04:37:49;;;;;;;4.05;3.53;;;;;;;;;;5025495;28;20044;-30
2022/05/23 04:40:17;;;;;;;7.05;4.22;;;;;;;;;;5047853;28;20450;-29
2022/05/23 04:42:43;;;;;;;4.47;3.83;;;;;;;;;;5044324;28;20128;-29
2022/05/23 04:45:10;;;;;;;5.72;4.45;;;;;;;;;;5040256;28;20076;-30
2022/05/23 04:50:21;;;;;;;4.35;3.80;;;;;;;;;;5033629;28;20080;-31
2022/05/23 04:52:48;;;;;;;7.85;3.80;;;;;;;;;;5049722;28;20112;-31
2022/05/23 04:55:15;;;;;;;3.97;3.58;;;;;;;;;;5048485;28;20570;-29
2022/05/23 04:57:41;;;;;;;6.13;4.18;;;;;;;;;;5052306;28;20045;-29
2022/05/23 05:00:09;;;;;;;4.70;3.88;;;;;;;;;;5052460;28;20041;-29
2022/05/23 05:02:35;;;;;;;4.70;3.95;;;;;;;;;;5052660;28;20513;-32
2022/05/23 05:05:02;;;;;;;4.53;4.05;;;;;;;;;;5051437;28;20044;-31
2022/05/23 05:07:28;;;;;;;5.28;3.58;;;;;;;;;;5051998;28;20545;-30
2022/05/23 05:09:54;;;;;;;5.93;4.43;;;;;;;;;;5033762;28;20103;-31
2022/05/23 05:12:20;;;;;;;5.03;3.80;;;;;;;;;;5052142;28;20048;-30
2022/05/23 05:14:47;;;;;;;6.75;4.75;;;;;;;;;;5051912;28;20037;-29
2022/05/23 05:17:13;;;;;;;3.90;3.60;;;;;;;;;;5052057;28;20491;-30
2022/05/23 05:19:39;;;;;;;6.88;4.20;;;;;;;;;;5034135;28;20072;-29
2022/05/23 05:22:05;;;;;;;5.20;4.20;;;;;;;;;;5052036;28;20322;-30
2022/05/23 05:24:32;;;;;;;6.90;4.35;;;;;;;;;;5052482;28;20041;-30
2022/05/23 05:27:01;;;;;;;6.03;4.88;;;;;;;;;;5034401;28;20049;-29
2022/05/23 05:29:28;;;;;;;8.50;5.20;;;;;;;;;;5051523;28;20039;-32
2022/05/23 05:32:20;;;;;;;5.57;4.30;;;;;;;;;;5034151;28;20489;-29
2022/05/23 05:34:49;;;;;;;6.03;4.80;;;;;;;;;;5021971;28;20487;-29
2022/05/23 05:37:17;;;;;;;7.97;5.07;;;;;;;;;;5050646;28;20045;-30
2022/05/23 05:39:44;;;;;;;6.15;4.68;;;;;;;;;;5047402;28;20041;-35
2022/05/23 05:42:26;;;;;;;6.40;5.63;;;;;;;;;;5046401;28;20041;-31
2022/05/23 05:45:08;;;;;;;7.30;5.03;;;;;;;;;;5048369;28;20486;-31
2022/05/23 05:47:35;;;;;;;8.13;6.20;;;;;;;;;;5042949;28;20582;-33
2022/05/23 05:50:05;;;;;;;5.30;4.85;;;;;;;;;;5050556;28;20337;-32
2022/05/23 05:52:32;;;;;;;7.50;5.68;;;;;;;;;;5044388;28;20080;-32
2022/05/23 05:54:58;;;;;;;5.90;5.30;;;;;;;;;;5044348;28;20048;-32
2022/05/23 05:57:25;;;;;;;8.43;6.25;;;;;;;;;;5033108;28;20498;-32
2022/05/23 05:59:51;;;;;;;9.18;6.00;;;;;;;;;;5050790;28;20041;-31
2022/05/23 06:02:17;;;;;;;6.28;5.72;;;;;;;;;;5048134;28;20427;-32
2022/05/23 06:04:44;;;;;;;8.23;6.03;;;;;;;;;;5050391;28;20048;-32
2022/05/23 06:12:47;;;;;;;9.75;5.90;;;;;;;;;;5051375;28;20128;-31
2022/05/23 06:15:15;;;;;;;6.50;5.70;;;;;;;;;;5043935;28;20479;-31
2022/05/23 06:17:42;;;;;;;6.78;6.10;;;;;;;;;;5027894;28;20440;-35
2022/05/23 06:20:09;;;;;;;7.07;5.88;;;;;;;;;;5031342;28;20045;-32
2022/05/23 06:22:35;;;;;;;7.85;5.85;;;;;;;;;;5029306;28;20547;-31
2022/05/23 06:25:02;;;;;;;7.07;5.40;;;;;;;;;;5030804;28;20111;-34
2022/05/23 06:27:28;;;;;;;7.40;6.30;;;;;;;;;;5004562;28;20045;-32
2022/05/23 06:29:55;;;;;;;9.68;6.38;;;;;;;;;;5040187;28;20082;-31
2022/05/23 06:32:21;;;;;;;8.70;5.82;;;;;;;;;;5040352;28;20076;-32
2022/05/23 06:34:48;;;;;;;6.85;6.15;;;;;;;;;;5050066;28;20037;-32
2022/05/23 06:37:14;;;;;;;7.50;6.03;;;;;;;;;;5045481;28;20040;-32
2022/05/23 06:39:40;;;;;;;7.25;5.68;;;;;;;;;;5034196;28;20037;-32
2022/05/23 06:42:06;;;;;;;6.72;5.93;;;;;;;;;;5045796;28;20406;-32
2022/05/23 06:44:33;;;;;;;8.60;5.80;;;;;;;;;;5041977;28;20037;-32
2022/05/23 06:46:59;;;;;;;6.88;5.45;;;;;;;;;;5049702;28;20075;-33
2022/05/23 06:49:25;;;;;;;7.72;5.22;;;;;;;;;;5046004;28;20048;-31
2022/05/23 06:51:52;;;;;;;6.18;5.60;;;;;;;;;;5049860;28;20036;-31
2022/05/23 06:54:22;;;;;;;6.90;5.55;;;;;;;;;;5036075;28;20042;-31
2022/05/23 06:56:48;;;;;;;7.22;5.82;;;;;;;;;;5030543;28;20076;-32
2022/05/23 06:59:15;;;;;;;7.72;5.10;;;;;;;;;;5029576;28;20049;-32
2022/05/23 07:01:42;;;;;;;7.28;5.35;;;;;;;;;;5029936;28;20040;-32
2022/05/23 07:04:08;;;;;;;7.25;5.75;;;;;;;;;;5034022;28;20279;-32
2022/05/23 07:14:48;;;;;;;8.50;5.47;;;;;;;;;;5029780;28;20179;-31
2022/05/23 07:17:15;;;;;;;6.43;5.40;;;;;;;;;;5040402;28;20044;-32
2022/05/23 07:19:41;;;;;;;7.85;5.40;;;;;;;;;;5049237;28;20080;-31
2022/05/23 07:22:07;;;;;;;6.35;5.47;;;;;;;;;;5053374;28;20488;-29
2022/05/23 07:24:34;;;;;;;8.13;5.85;;;;;;;;;;5053101;28;20491;-30
2022/05/23 07:27:00;;;;;;;7.10;5.38;;;;;;;;;;5052925;28;20083;-29
2022/05/23 07:29:27;;;;;;;5.80;5.13;;;;;;;;;;5053817;28;20064;-29
2022/05/23 07:31:53;;;;;;;5.82;5.22;;;;;;;;;;5053153;28;20163;-29
2022/05/23 07:34:19;;;;;;;7.10;5.63;;;;;;;;;;5052494;28;20047;-28
2022/05/23 07:36:46;;;;;;;6.03;5.00;;;;;;;;;;5053426;28;20060;-29
2022/05/23 07:39:12;;;;;;;8.23;4.82;;;;;;;;;;5052924;28;20045;-29
2022/05/23 07:41:39;;;;;;;11.93;5.60;;;;;;;;;;5053291;28;20040;-29
2022/05/23 07:44:09;;;;;;;9.25;5.63;;;;;;;;;;5052292;28;20555;-30
2022/05/23 07:46:37;;;;;;;8.05;5.30;;;;;;;;;;5053061;28;20128;-31
2022/05/23 07:49:04;;;;;;;7.47;5.25;;;;;;;;;;5052463;28;20102;-31
2022/05/23 07:51:30;;;;;;;8.80;5.40;;;;;;;;;;5053203;28;20033;-30
2022/05/23 08:02:12;;;;;;;5.53;5.03;;;;;;;;;;5052085;28;20045;-29
2022/05/23 08:04:39;;;;;;;7.18;5.00;;;;;;;;;;5052884;28;20048;-32
2022/05/23 08:07:05;;;;;;;7.10;5.47;;;;;;;;;;5052430;28;20045;-30
2022/05/23 08:09:31;;;;;;;5.43;4.85;;;;;;;;;;5052772;28;20528;-30
2022/05/23 08:11:58;;;;;;;5.22;4.72;;;;;;;;;;5051143;28;20047;-32
2022/05/23 08:14:24;;;;;;;9.52;5.47;;;;;;;;;;5049010;28;20037;-32
2022/05/23 08:16:51;;;;;;;6.40;5.43;;;;;;;;;;5037951;28;20403;-32
2022/05/23 08:19:17;;;;;;;7.30;5.07;;;;;;;;;;5028358;28;20136;-32
2022/05/23 08:21:52;;;;;;;5.63;5.00;;;;;;;;;;5045233;28;20045;-32
2022/05/23 08:24:18;;;;;;;5.95;4.70;;;;;;;;;;5046417;28;20421;-32
2022/05/23 08:26:44;;;;;;;5.45;4.95;;;;;;;;;;5045452;28;20464;-33
2022/05/23 08:29:10;;;;;;;7.70;5.03;;;;;;;;;;5050773;28;20033;-32
2022/05/23 08:31:37;;;;;;;7.57;4.22;;;;;;;;;;5044370;28;20036;-34
2022/05/23 08:34:04;;;;;;;5.75;4.53;;;;;;;;;;5051932;28;20044;-32
2022/05/23 08:36:30;;;;;;;6.72;4.85;;;;;;;;;;5041769;28;20037;-33
2022/05/23 08:38:56;;;;;;;6.90;4.68;;;;;;;;;;5043395;28;20037;-32
2022/05/23 08:41:25;;;;;;;7.05;4.95;;;;;;;;;;5043848;28;20047;-33
2022/05/23 08:44:05;;;;;;;4.88;4.25;;;;;;;;;;5037681;28;20041;-32
2022/05/23 08:46:46;;;;;;;5.97;4.13;;;;;;;;;;5043106;28;20042;-32
2022/05/23 08:49:18;;;;;;;5.28;4.03;;;;;;;;;;5042322;28;20114;-32
2022/05/23 08:51:49;;;;;;;6.80;4.30;;;;;;;;;;5044309;28;20044;-32
2022/05/23 08:54:26;;;;;;;7.60;4.10;;;;;;;;;;5035985;28;20074;-33
2022/05/23 08:56:56;;;;;;;5.57;4.47;;;;;;;;;;5041684;28;20053;-32
2022/05/23 08:59:32;;;;;;;5.30;3.67;;;;;;;;;;5037376;28;20391;-33
2022/05/23 09:02:02;;;;;;;7.72;4.18;;;;;;;;;;5042047;28;20555;-32
2022/05/23 09:04:44;;;;;;;6.55;3.88;;;;;;;;;;5044432;28;20056;-33
2022/05/23 09:07:13;;;;;;;4.75;4.00;;;;;;;;;;5040896;28;20041;-34
2022/05/23 09:09:40;;;;;;;3.55;3.22;;;;;;;;;;5040585;28;20556;-33
2022/05/23 09:12:09;;;;;;;5.80;3.03;;;;;;;;;;5047864;28;20045;-32
2022/05/23 09:14:35;;;;;;;5.93;3.50;;;;;;;;;;5044305;28;20040;-32
2022/05/23 09:17:02;;;;;;;3.90;3.22;;;;;;;;;;5043612;28;20475;-31
2022/05/23 09:19:33;;;;;;;7.30;3.20;;;;;;;;;;5027041;28;20037;-31
2022/05/23 09:22:14;;;;;;;5.18;3.53;;;;;;;;;;5042750;28;20044;-31
2022/05/23 09:24:43;;;;;;;4.35;3.47;;;;;;;;;;5041283;28;20491;-32
2022/05/23 09:27:27;;;;;;;3.88;3.25;;;;;;;;;;5046751;28;20116;-31
2022/05/23 09:29:54;;;;;;;4.68;3.15;;;;;;;;;;5037901;28;20036;-32
2022/05/23 09:32:25;;;;;;;4.57;3.30;;;;;;;;;;5043804;28;20502;-32
2022/05/23 09:34:55;;;;;;;4.65;2.97;;;;;;;;;;5032127;28;20167;-33
2022/05/23 09:37:37;;;;;;;4.95;3.55;;;;;;;;;;5037377;28;20116;-32
2022/05/23 09:40:04;;;;;;;5.32;3.38;;;;;;;;;;5040467;28;20460;-34
2022/05/23 09:48:13;;;;;;;5.78;3.83;;;;;;;;;;5050367;28;20092;-32
2022/05/23 09:50:40;;;;;;;5.13;3.50;;;;;;;;;;5049111;28;20098;-31
2022/05/23 09:53:17;;;;;;;4.50;2.95;;;;;;;;;;5040925;28;20078;-32
2022/05/23 09:55:43;;;;;;;4.25;2.88;;;;;;;;;;5050179;28;20041;-32
2022/05/23 09:58:11;;;;;;;3.88;2.63;;;;;;;;;;5039248;28;20068;-32
2022/05/23 10:00:39;;;;;;;3.17;2.65;;;;;;;;;;5050801;28;20115;-32
2022/05/23 10:03:07;;;;;;;4.32;2.78;;;;;;;;;;5047753;28;20045;-32
2022/05/23 10:05:37;;;;;;;4.07;2.65;;;;;;;;;;5029976;28;20129;-32
2022/05/23 10:08:12;;;;;;;3.70;2.20;;;;;;;;;;5033371;28;20478;-32
2022/05/23 10:10:39;;;;;;;7.57;2.70;;;;;;;;;;5037695;28;20038;-33
2022/05/23 10:13:17;;;;;;;5.55;2.80;;;;;;;;;;5030732;28;20080;-32
2022/05/23 10:15:44;;;;;;;5.68;2.47;;;;;;;;;;5041225;28;20041;-32
2022/05/23 10:18:16;;;;;;;3.70;2.40;;;;;;;;;;5049716;28;20104;-32
2022/05/23 10:20:43;;;;;;;4.50;3.00;;;;;;;;;;5035345;28;20068;-32
2022/05/23 10:23:23;;;;;;;5.75;2.70;;;;;;;;;;5039155;28;20080;-33
2022/05/23 10:26:08;;;;;;;2.50;2.20;;;;;;;;;;5047725;28;20120;-32
2022/05/23 10:28:47;;;;;;;2.63;2.10;;;;;;;;;;5033475;28;20040;-32
2022/05/23 10:31:31;;;;;;;3.47;2.45;;;;;;;;;;5041328;28;20034;-33
2022/05/23 10:34:04;;;;;;;3.63;2.25;;;;;;;;;;5037388;28;20099;-32
2022/05/23 10:36:30;;;;;;;3.78;2.38;;;;;;;;;;5030493;28;20566;-33
2022/05/23 10:42:13;;;;;;;5.15;2.40;;;;;;;;;;5035293;28;20041;-34
2022/05/23 10:44:42;;;;;;;3.88;2.13;;;;;;;;;;5032052;28;20487;-33
2022/05/23 10:47:08;;;;;;;3.58;2.00;;;;;;;;;;5041342;28;20044;-34
2022/05/23 10:49:40;;;;;;;4.03;2.60;;;;;;;;;;5037899;28;20069;-33
2022/05/23 10:52:18;;;;;;;3.58;2.05;;;;;;;;;;5030255;28;20099;-33
2022/05/23 10:54:52;;;;;;;5.10;1.98;;;;;;;;;;5034166;28;20042;-33
2022/05/23 10:57:22;;;;;;;3.85;2.28;;;;;;;;;;5033870;28;20037;-33
2022/05/23 11:00:08;;;;;;;3.83;2.00;;;;;;;;;;5033236;28;20099;-33
2022/05/23 11:02:41;;;;;;;3.38;2.00;;;;;;;;;;5035153;28;20041;-33
2022/05/23 11:05:13;;;;;;;4.00;1.90;;;;;;;;;;5036846;28;20050;-34
2022/05/23 11:08:00;;;;;;;2.53;1.98;;;;;;;;;;5033080;28;20052;-34
2022/05/23 11:10:45;;;;;;;3.00;2.10;;;;;;;;;;5032583;28;20051;-32
2022/05/23 11:13:14;;;;;;;3.10;2.30;;;;;;;;;;5044361;28;20036;-33
2022/05/23 11:15:40;;;;;;;3.50;2.20;;;;;;;;;;5040067;28;20034;-35
2022/05/23 11:18:18;;;;;;;3.90;2.00;;;;;;;;;;5041548;28;20487;-32
2022/05/23 11:20:44;;;;;;;4.13;2.28;;;;;;;;;;5035371;28;20067;-33
2022/05/23 11:23:28;;;;;;;3.38;2.53;;;;;;;;;;5022823;28;20426;-33
2022/05/23 11:25:58;;;;;;;4.93;2.80;;;;;;;;;;5039658;28;20045;-35
2022/05/23 11:34:10;;;;;;;4.82;3.00;;;;;;;;;;5035621;28;20041;-34
2022/05/23 11:39:40;;;;;;;5.97;2.42;;;;;;;;;;5042494;28;20045;-33
2022/05/23 11:42:13;;;;;;;2.97;2.45;;;;;;;;;;5052291;28;20049;-33
2022/05/23 11:44:47;;;;;;;2.75;2.50;;;;;;;;;;5048163;28;20041;-35
2022/05/23 11:47:21;;;;;;;3.22;2.40;;;;;;;;;;5035446;28;20049;-34
2022/05/23 11:49:49;;;;;;;3.55;2.67;;;;;;;;;;5041438;28;20059;-33
2022/05/23 11:52:24;;;;;;;3.78;3.00;;;;;;;;;;5047395;28;20036;-34
2022/05/23 11:54:50;;;;;;;3.80;3.05;;;;;;;;;;5052935;28;20403;-33
2022/05/23 11:57:22;;;;;;;4.35;3.53;;;;;;;;;;5034712;28;20055;-33
2022/05/23 11:59:49;;;;;;;3.10;2.80;;;;;;;;;;5031433;28;20083;-36
2022/05/23 12:02:15;;;;;;;4.40;3.00;;;;;;;;;;5033114;28;20045;-36
2022/05/23 12:04:41;;;;;;;3.72;2.92;;;;;;;;;;5039911;28;20059;-37
2022/05/23 12:07:07;;;;;;;4.00;2.47;;;;;;;;;;5036558;28;20041;-33
2022/05/23 12:09:35;;;;;;;6.75;2.78;;;;;;;;;;5036381;28;20116;-34
2022/05/23 12:12:20;;;;;;;4.95;2.70;;;;;;;;;;5038646;28;20542;-34
2022/05/23 12:14:46;;;;;;;3.40;2.65;;;;;;;;;;5036834;28;20607;-33
2022/05/23 12:17:32;;;;;;;5.90;2.65;;;;;;;;;;5048650;28;20041;-33
2022/05/23 12:20:06;;;;;;;5.72;2.83;;;;;;;;;;5036320;28;20041;-33
2022/05/23 12:22:33;;;;;;;4.78;2.90;;;;;;;;;;5032962;28;20411;-34
2022/05/23 12:25:09;;;;;;;3.90;2.53;;;;;;;;;;5031714;28;20041;-34
2022/05/23 12:27:35;;;;;;;3.10;2.70;;;;;;;;;;5042835;28;20531;-32
2022/05/23 12:30:24;;;;;;;4.72;2.92;;;;;;;;;;5036073;28;20041;-33
2022/05/23 12:32:55;;;;;;;6.97;3.10;;;;;;;;;;5045644;28;20060;-36
2022/05/23 12:35:34;;;;;;;3.50;2.80;;;;;;;;;;5036922;28;20068;-33
2022/05/23 12:38:05;;;;;;;5.05;3.00;;;;;;;;;;5034437;28;20052;-31
2022/05/23 12:40:39;;;;;;;3.95;3.10;;;;;;;;;;5031365;28;20054;-33
2022/05/23 12:43:23;;;;;;;4.78;2.95;;;;;;;;;;5036643;28;20077;-33
2022/05/23 12:45:59;;;;;;;4.15;3.10;;;;;;;;;;5042573;28;20046;-33
2022/05/23 12:48:26;;;;;;;4.45;3.30;;;;;;;;;;5051009;28;21114;-32
2022/05/23 12:50:52;;;;;;;6.38;3.40;;;;;;;;;;5047177;28;20164;-33
2022/05/23 12:53:36;;;;;;;5.93;3.45;;;;;;;;;;5033576;28;20045;-32
2022/05/23 12:56:03;;;;;;;6.32;3.38;;;;;;;;;;5021941;28;20044;-36
2022/05/23 12:58:43;;;;;;;4.22;3.28;;;;;;;;;;5033524;28;20053;-36
2022/05/23 13:01:10;;;;;;;4.90;3.92;;;;;;;;;;5052635;28;20116;-32
2022/05/23 13:03:39;;;;;;;7.63;3.50;;;;;;;;;;5051877;28;20048;-33
2022/05/23 13:06:06;;;;;;;8.98;4.25;;;;;;;;;;5045352;28;20074;-33
2022/05/23 13:08:46;;;;;;;4.45;4.05;;;;;;;;;;5036125;28;20033;-31
2022/05/23 13:11:17;;;;;;;5.18;3.70;;;;;;;;;;5048510;28;20044;-33
2022/05/23 13:13:45;;;;;;;4.55;4.13;;;;;;;;;;5032071;28;20045;-34
2022/05/23 13:16:31;;;;;;;6.97;3.80;;;;;;;;;;5030950;28;20604;-33
2022/05/23 13:22:06;;;;;;;4.78;4.13;;;;;;;;;;5035445;28;20045;-33
2022/05/23 13:24:54;;;;;;;3.85;3.40;;;;;;;;;;5051949;28;20079;-32
2022/05/23 13:27:25;;;;;;;7.47;4.75;;;;;;;;;;5050715;28;20445;-31
2022/05/23 13:30:08;;;;;;;7.78;4.10;;;;;;;;;;5046279;28;20033;-34
2022/05/23 13:32:35;;;;;;;4.95;4.15;;;;;;;;;;5030353;28;20048;-32
2022/05/23 13:35:01;;;;;;;4.70;4.20;;;;;;;;;;5051726;28;20041;-33
2022/05/23 13:37:35;;;;;;;7.78;4.70;;;;;;;;;;5051373;28;20491;-32
2022/05/23 13:40:24;;;;;;;5.60;4.80;;;;;;;;;;5036078;28;20044;-33
2022/05/23 13:42:50;;;;;;;6.00;4.10;;;;;;;;;;5027989;28;20090;-34
2022/05/23 13:45:25;;;;;;;6.03;4.28;;;;;;;;;;5033979;28;20119;-36
2022/05/23 13:47:56;;;;;;;6.45;4.85;;;;;;;;;;5033563;28;20041;-32
2022/05/23 13:50:25;;;;;;;5.78;4.22;;;;;;;;;;5051736;28;20040;-34
2022/05/23 13:52:55;;;;;;;5.75;3.90;;;;;;;;;;5032204;28;20372;-32
2022/05/23 13:55:32;;;;;;;6.18;4.60;;;;;;;;;;5046642;28;20043;-32
2022/05/23 13:58:04;;;;;;;7.70;4.10;;;;;;;;;;5051390;28;20041;-33
2022/05/23 14:00:42;;;;;;;7.90;4.50;;;;;;;;;;5051079;28;20072;-34
2022/05/23 14:03:13;;;;;;;11.95;4.43;;;;;;;;;;5046472;28;20436;-32
2022/05/23 14:05:44;;;;;;;6.05;4.43;;;;;;;;;;5030821;28;20037;-35
2022/05/23 14:08:10;;;;;;;5.82;4.45;;;;;;;;;;5037199;28;20060;-34
2022/05/23 14:10:41;;;;;;;5.53;3.85;;;;;;;;;;5036024;28;20044;-33
2022/05/23 14:13:08;;;;;;;4.95;4.10;;;;;;;;;;5051480;28;20617;-35
2022/05/23 14:15:34;;;;;;;5.03;3.95;;;;;;;;;;5045220;28;20119;-36
2022/05/23 14:18:01;;;;;;;7.22;4.72;;;;;;;;;;5050696;28;20130;-35
2022/05/23 14:20:30;;;;;;;5.03;4.25;;;;;;;;;;5045865;28;20044;-34
2022/05/23 14:23:05;;;;;;;4.70;4.30;;;;;;;;;;5036889;28;20041;-32
2022/05/23 14:25:36;;;;;;;6.15;4.90;;;;;;;;;;5048205;28;20041;-33
2022/05/23 14:28:22;;;;;;;5.03;4.10;;;;;;;;;;5036863;28;20569;-32
2022/05/23 14:30:53;;;;;;;4.90;4.30;;;;;;;;;;5038521;28;20041;-32
2022/05/23 14:33:27;;;;;;;6.55;4.50;;;;;;;;;;5053596;28;20052;-33
2022/05/23 14:35:55;;;;;;;6.10;4.30;;;;;;;;;;5054120;28;20502;-32
2022/05/23 14:38:35;;;;;;;7.85;4.07;;;;;;;;;;5050366;28;20048;-32
2022/05/23 14:41:13;;;;;;;6.43;4.68;;;;;;;;;;5053431;28;20040;-33
2022/05/23 14:43:39;;;;;;;5.30;4.30;;;;;;;;;;5042009;28;20041;-37
2022/05/23 14:46:24;;;;;;;4.57;4.13;;;;;;;;;;5037282;28;20150;-32
2022/05/23 14:48:56;;;;;;;6.28;4.10;;;;;;;;;;5032297;28;20037;-32
2022/05/23 14:51:28;;;;;;;4.93;4.38;;;;;;;;;;5051303;28;20546;-33
2022/05/23 14:57:04;;;;;;;6.35;3.80;;;;;;;;;;5042790;28;20049;-33
2022/05/23 15:02:19;;;;;;;4.55;4.05;;;;;;;;;;5035544;28;20045;-30
2022/05/23 15:04:46;;;;;;;7.20;3.67;;;;;;;;;;5036512;28;20107;-32
2022/05/23 15:07:13;;;;;;;6.65;4.25;;;;;;;;;;5035841;28;20053;-32
2022/05/23 15:09:39;;;;;;;9.30;4.10;;;;;;;;;;5033166;28;20080;-33
2022/05/23 15:12:10;;;;;;;4.68;3.90;;;;;;;;;;5041591;28;20084;-32
2022/05/23 15:14:36;;;;;;;6.18;4.18;;;;;;;;;;5032948;28;20395;-33
2022/05/23 15:17:02;;;;;;;6.20;4.22;;;;;;;;;;5052258;28;20075;-31
2022/05/23 15:19:28;;;;;;;6.40;4.63;;;;;;;;;;5052822;28;20490;-33
2022/05/23 15:21:54;;;;;;;7.85;4.32;;;;;;;;;;5046497;28;20117;-32
2022/05/23 15:24:20;;;;;;;5.55;4.15;;;;;;;;;;5042526;28;20048;-33
2022/05/23 15:26:47;;;;;;;5.45;4.70;;;;;;;;;;5045912;28;20431;-29
2022/05/23 15:29:13;;;;;;;7.68;4.78;;;;;;;;;;5053424;28;20048;-30
2022/05/23 15:31:50;;;;;;;4.18;3.83;;;;;;;;;;5053305;28;20429;-30
2022/05/23 15:34:16;;;;;;;5.97;4.20;;;;;;;;;;5049287;28;20135;-31
2022/05/23 15:36:42;;;;;;;4.60;4.10;;;;;;;;;;5049357;28;20044;-31
2022/05/23 15:39:09;;;;;;;4.05;3.72;;;;;;;;;;5040458;28;20415;-30
2022/05/23 15:41:39;;;;;;;7.88;4.70;;;;;;;;;;5041137;28;20033;-31
2022/05/23 15:44:07;;;;;;;5.57;4.28;;;;;;;;;;5040126;28;20048;-31
2022/05/23 15:46:33;;;;;;;4.70;4.30;;;;;;;;;;5052142;28;20103;-30
2022/05/23 15:48:59;;;;;;;6.57;4.40;;;;;;;;;;5051255;28;20033;-30
2022/05/23 15:51:25;;;;;;;4.25;3.83;;;;;;;;;;5052746;28;20076;-30
2022/05/23 15:53:51;;;;;;;5.05;4.60;;;;;;;;;;5053029;28;20080;-30
2022/05/23 15:56:18;;;;;;;4.95;4.13;;;;;;;;;;5049685;28;20345;-31
2022/05/23 15:58:44;;;;;;;5.30;4.10;;;;;;;;;;5052611;28;20132;-30
2022/05/23 16:01:12;;;;;;;5.43;4.43;;;;;;;;;;5050734;28;20041;-31
2022/05/23 16:03:38;;;;;;;4.60;4.30;;;;;;;;;;5053225;28;20084;-30